TFM - Tactical Decision Aid (Experimental) INFO Settings

ID: Runway Winds: METAR Board: Map:

Katl - Atlanta-Hartsfield Jackson Intl

Updated at: 1735 UTC 22 Nov 2014
Latest TAF at: 1544 UTC 22 Nov 2014

TAF Board

Time1652Z22/18Z22/19Z22/20Z22/21Z22/22Z22/23Z23/00Z23/01Z23/02Z23/03Z23/04Z23/05Z23/06Z
TypeOBSPRVLPRVLPRVLPRVLPRVLPRVLPRVLPRVLPRVLPRVLPRVLPRVLPRVL
VIS10>6>6>6>6>6>6>6>6>6>6>6>6>6
CIG----------454545454545272716
CoverFEWSCTSCTSCTSCTBKNBKNBKNBKNBKNBKNBKNBKNOVC
FltCat--VFRVFRVFRVFRVFRVFRVFRVFRVFRVFRMVFRMVFRMVFR
WX----------------------------
WDir12090909090909090909090100100100
WSpd11101010101010101010108810
WGst----------------------------
TAF
KATL 221544Z 2216/2318 08011KT P6SM FEW250
  FM221800 09010KT P6SM SCT050
  FM222200 09010KT P6SM BKN045
  FM230400 10008KT P6SM BKN027
  FM230600 10010KT P6SM OVC016
  FM231000 08012KT 5SM -RA BR OVC008
  FM231400 09012G18KT 4SM SHRA BR OVC007


METAR
KATL 221652Z 12011KT 10SM FEW250 12/M06 A3041 RMK AO2 PRESFR SLP298 T01221061

TAF/METAR Board Legend

Hazard VFR MVFR IFR LIFR
Visibility (sm) >5 3≤X≤5 1≤X<3 <1
Ceiling (100 ft) >30 10≤X≤30 5≤X<10 <5
Wind Speed (kt) <10 10≤X<20 20≤X<30 ≥30
Wind Gust (kt) <15 15≤X<25 25≤X<35 ≥35
Weather No Wx Reported VCTS,-TS,-FZRA TS,FZRA +TS,+FZRA




Page loaded:  17:35 UTC  |   09:35 AM Pacific  |   10:35 AM Mountain  |   11:35 AM Central  |   12:35 PM Eastern

 

ADVISORIES

FORECASTS

FORECASTS

OBSERVATIONS

USER TOOLS

ABOUT US